sensor_id;sensor_type;location;lat;lon;timestamp;P1;P2;P0
40371;PMS5003;28564;53.346;-6.554;2023-12-28T00:00:46;2;0;
40371;PMS5003;28564;53.346;-6.554;2023-12-28T00:03:14;2;1;
40371;PMS5003;28564;53.346;-6.554;2023-12-28T00:05:41;1;1;
40371;PMS5003;28564;53.346;-6.554;2023-12-28T00:08:08;1;1;
40371;PMS5003;28564;53.346;-6.554;2023-12-28T00:10:35;4;1;
40371;PMS5003;28564;53.346;-6.554;2023-12-28T00:13:02;1;1;
40371;PMS5003;28564;53.346;-6.554;2023-12-28T00:15:29;1;0;
40371;PMS5003;28564;53.346;-6.554;2023-12-28T00:17:57;1;1;
40371;PMS5003;28564;53.346;-6.554;2023-12-28T00:20:24;2;1;
40371;PMS5003;28564;53.346;-6.554;2023-12-28T00:22:51;0;0;
40371;PMS5003;28564;53.346;-6.554;2023-12-28T00:25:19;2;1;
40371;PMS5003;28564;53.346;-6.554;2023-12-28T00:27:46;0;0;
40371;PMS5003;28564;53.346;-6.554;2023-12-28T00:30:13;0;0;
40371;PMS5003;28564;53.346;-6.554;2023-12-28T00:32:40;0;0;
40371;PMS5003;28564;53.346;-6.554;2023-12-28T00:35:08;2;0;
40371;PMS5003;28564;53.346;-6.554;2023-12-28T00:37:35;2;1;
40371;PMS5003;28564;53.346;-6.554;2023-12-28T00:40:03;1;1;
40371;PMS5003;28564;53.346;-6.554;2023-12-28T00:42:31;2;2;
40371;PMS5003;28564;53.346;-6.554;2023-12-28T00:44:58;5;3;
40371;PMS5003;28564;53.346;-6.554;2023-12-28T00:47:26;2;2;
40371;PMS5003;28564;53.346;-6.554;2023-12-28T00:49:53;4;4;
40371;PMS5003;28564;53.346;-6.554;2023-12-28T00:52:20;2;2;
40371;PMS5003;28564;53.346;-6.554;2023-12-28T00:54:48;2;2;
40371;PMS5003;28564;53.346;-6.554;2023-12-28T00:57:15;6;3;
40371;PMS5003;28564;53.346;-6.554;2023-12-28T00:59:42;4;3;
40371;PMS5003;28564;53.346;-6.554;2023-12-28T01:02:09;4;3;
40371;PMS5003;28564;53.346;-6.554;2023-12-28T01:04:37;9;5;
40371;PMS5003;28564;53.346;-6.554;2023-12-28T01:07:04;1;1;
40371;PMS5003;28564;53.346;-6.554;2023-12-28T01:09:31;2;1;
40371;PMS5003;28564;53.346;-6.554;2023-12-28T01:11:59;2;1;
40371;PMS5003;28564;53.346;-6.554;2023-12-28T01:14:26;2;2;
40371;PMS5003;28564;53.346;-6.554;2023-12-28T01:16:53;3;2;
40371;PMS5003;28564;53.346;-6.554;2023-12-28T01:19:20;3;1;
40371;PMS5003;28564;53.346;-6.554;2023-12-28T01:21:48;1;0;
40371;PMS5003;28564;53.346;-6.554;2023-12-28T01:24:15;1;1;
40371;PMS5003;28564;53.346;-6.554;2023-12-28T01:26:42;1;1;
40371;PMS5003;28564;53.346;-6.554;2023-12-28T01:29:10;1;1;
40371;PMS5003;28564;53.346;-6.554;2023-12-28T01:31:38;1;1;
40371;PMS5003;28564;53.346;-6.554;2023-12-28T01:34:05;0;0;
40371;PMS5003;28564;53.346;-6.554;2023-12-28T01:36:32;2;2;
40371;PMS5003;28564;53.346;-6.554;2023-12-28T01:38:59;1;1;
40371;PMS5003;28564;53.346;-6.554;2023-12-28T01:41:27;2;1;
40371;PMS5003;28564;53.346;-6.554;2023-12-28T01:43:54;2;0;
40371;PMS5003;28564;53.346;-6.554;2023-12-28T01:46:21;0;0;
40371;PMS5003;28564;53.346;-6.554;2023-12-28T01:48:49;1;1;
40371;PMS5003;28564;53.346;-6.554;2023-12-28T01:51:17;1;1;
40371;PMS5003;28564;53.346;-6.554;2023-12-28T01:53:47;3;2;
40371;PMS5003;28564;53.346;-6.554;2023-12-28T01:56:16;3;2;
40371;PMS5003;28564;53.346;-6.554;2023-12-28T01:58:44;1;0;
40371;PMS5003;28564;53.346;-6.554;2023-12-28T02:01:13;1;1;
40371;PMS5003;28564;53.346;-6.554;2023-12-28T02:03:40;4;2;
40371;PMS5003;28564;53.346;-6.554;2023-12-28T02:06:07;0;0;
40371;PMS5003;28564;53.346;-6.554;2023-12-28T02:08:35;2;1;
40371;PMS5003;28564;53.346;-6.554;2023-12-28T02:11:02;1;1;
40371;PMS5003;28564;53.346;-6.554;2023-12-28T02:13:31;4;1;
40371;PMS5003;28564;53.346;-6.554;2023-12-28T02:15:58;1;1;
40371;PMS5003;28564;53.346;-6.554;2023-12-28T02:18:30;1;1;
40371;PMS5003;28564;53.346;-6.554;2023-12-28T02:21:04;1;1;
40371;PMS5003;28564;53.346;-6.554;2023-12-28T02:23:34;2;1;
40371;PMS5003;28564;53.346;-6.554;2023-12-28T02:26:01;1;1;
40371;PMS5003;28564;53.346;-6.554;2023-12-28T02:28:29;0;0;
40371;PMS5003;28564;53.346;-6.554;2023-12-28T02:30:56;2;0;
40371;PMS5003;28564;53.346;-6.554;2023-12-28T02:33:24;0;0;
40371;PMS5003;28564;53.346;-6.554;2023-12-28T02:36:01;0;0;
40371;PMS5003;28564;53.346;-6.554;2023-12-28T02:38:31;1;1;
40371;PMS5003;28564;53.346;-6.554;2023-12-28T02:41:02;0;0;
40371;PMS5003;28564;53.346;-6.554;2023-12-28T02:43:31;0;0;
40371;PMS5003;28564;53.346;-6.554;2023-12-28T02:45:58;1;0;
40371;PMS5003;28564;53.346;-6.554;2023-12-28T02:48:26;2;1;
40371;PMS5003;28564;53.346;-6.554;2023-12-28T02:50:53;1;1;
40371;PMS5003;28564;53.346;-6.554;2023-12-28T02:53:20;4;1;
40371;PMS5003;28564;53.346;-6.554;2023-12-28T02:55:48;0;0;
40371;PMS5003;28564;53.346;-6.554;2023-12-28T02:58:15;0;0;
40371;PMS5003;28564;53.346;-6.554;2023-12-28T03:00:42;1;1;
40371;PMS5003;28564;53.346;-6.554;2023-12-28T03:03:09;4;1;
40371;PMS5003;28564;53.346;-6.554;2023-12-28T03:05:36;2;1;
40371;PMS5003;28564;53.346;-6.554;2023-12-28T03:08:04;1;1;
40371;PMS5003;28564;53.346;-6.554;2023-12-28T03:10:31;3;3;
40371;PMS5003;28564;53.346;-6.554;2023-12-28T03:12:58;2;0;
40371;PMS5003;28564;53.346;-6.554;2023-12-28T03:15:25;3;0;
40371;PMS5003;28564;53.346;-6.554;2023-12-28T03:17:53;2;1;
40371;PMS5003;28564;53.346;-6.554;2023-12-28T03:20:20;2;2;
40371;PMS5003;28564;53.346;-6.554;2023-12-28T03:22:47;3;2;
40371;PMS5003;28564;53.346;-6.554;2023-12-28T03:25:14;4;1;
40371;PMS5003;28564;53.346;-6.554;2023-12-28T03:27:41;6;2;
40371;PMS5003;28564;53.346;-6.554;2023-12-28T03:30:09;1;1;
40371;PMS5003;28564;53.346;-6.554;2023-12-28T03:32:38;1;1;
40371;PMS5003;28564;53.346;-6.554;2023-12-28T03:35:05;1;1;
40371;PMS5003;28564;53.346;-6.554;2023-12-28T03:37:33;2;2;
40371;PMS5003;28564;53.346;-6.554;2023-12-28T03:40:01;1;1;
40371;PMS5003;28564;53.346;-6.554;2023-12-28T03:42:28;1;1;
40371;PMS5003;28564;53.346;-6.554;2023-12-28T03:44:55;0;0;
40371;PMS5003;28564;53.346;-6.554;2023-12-28T03:47:23;1;1;
40371;PMS5003;28564;53.346;-6.554;2023-12-28T03:49:50;1;0;
40371;PMS5003;28564;53.346;-6.554;2023-12-28T03:52:17;2;1;
40371;PMS5003;28564;53.346;-6.554;2023-12-28T03:54:44;1;1;
40371;PMS5003;28564;53.346;-6.554;2023-12-28T03:57:11;1;1;
40371;PMS5003;28564;53.346;-6.554;2023-12-28T03:59:39;5;2;
40371;PMS5003;28564;53.346;-6.554;2023-12-28T04:02:07;2;1;
40371;PMS5003;28564;53.346;-6.554;2023-12-28T04:04:34;0;0;
40371;PMS5003;28564;53.346;-6.554;2023-12-28T04:07:01;3;1;
40371;PMS5003;28564;53.346;-6.554;2023-12-28T04:09:28;2;2;
40371;PMS5003;28564;53.346;-6.554;2023-12-28T04:11:55;5;1;
40371;PMS5003;28564;53.346;-6.554;2023-12-28T04:14:23;0;0;
40371;PMS5003;28564;53.346;-6.554;2023-12-28T04:16:50;1;1;
40371;PMS5003;28564;53.346;-6.554;2023-12-28T04:19:17;2;0;
40371;PMS5003;28564;53.346;-6.554;2023-12-28T04:21:44;2;0;
40371;PMS5003;28564;53.346;-6.554;2023-12-28T04:24:12;1;1;
40371;PMS5003;28564;53.346;-6.554;2023-12-28T04:26:39;0;0;
40371;PMS5003;28564;53.346;-6.554;2023-12-28T04:29:06;0;0;
40371;PMS5003;28564;53.346;-6.554;2023-12-28T04:31:33;1;0;
40371;PMS5003;28564;53.346;-6.554;2023-12-28T04:34:06;4;0;
40371;PMS5003;28564;53.346;-6.554;2023-12-28T04:36:39;1;1;
40371;PMS5003;28564;53.346;-6.554;2023-12-28T04:39:06;3;1;
40371;PMS5003;28564;53.346;-6.554;2023-12-28T04:41:34;2;0;
40371;PMS5003;28564;53.346;-6.554;2023-12-28T04:44:02;0;0;
40371;PMS5003;28564;53.346;-6.554;2023-12-28T04:46:29;3;3;
40371;PMS5003;28564;53.346;-6.554;2023-12-28T04:48:56;5;1;
40371;PMS5003;28564;53.346;-6.554;2023-12-28T04:51:23;1;1;
40371;PMS5003;28564;53.346;-6.554;2023-12-28T04:53:50;2;1;
40371;PMS5003;28564;53.346;-6.554;2023-12-28T04:56:18;1;1;
40371;PMS5003;28564;53.346;-6.554;2023-12-28T04:58:46;3;2;
40371;PMS5003;28564;53.346;-6.554;2023-12-28T05:01:13;9;3;
40371;PMS5003;28564;53.346;-6.554;2023-12-28T05:03:40;3;3;
40371;PMS5003;28564;53.346;-6.554;2023-12-28T05:06:07;3;2;
40371;PMS5003;28564;53.346;-6.554;2023-12-28T05:08:34;2;2;
40371;PMS5003;28564;53.346;-6.554;2023-12-28T05:11:02;1;1;
40371;PMS5003;28564;53.346;-6.554;2023-12-28T05:13:29;2;2;
40371;PMS5003;28564;53.346;-6.554;2023-12-28T05:15:56;2;2;
40371;PMS5003;28564;53.346;-6.554;2023-12-28T05:18:23;3;2;
40371;PMS5003;28564;53.346;-6.554;2023-12-28T05:20:50;7;4;
40371;PMS5003;28564;53.346;-6.554;2023-12-28T05:23:18;1;1;
40371;PMS5003;28564;53.346;-6.554;2023-12-28T05:25:45;5;2;
40371;PMS5003;28564;53.346;-6.554;2023-12-28T05:28:12;7;4;
40371;PMS5003;28564;53.346;-6.554;2023-12-28T05:30:39;4;2;
40371;PMS5003;28564;53.346;-6.554;2023-12-28T05:33:07;3;2;
40371;PMS5003;28564;53.346;-6.554;2023-12-28T05:35:34;6;2;
40371;PMS5003;28564;53.346;-6.554;2023-12-28T05:38:01;1;1;
40371;PMS5003;28564;53.346;-6.554;2023-12-28T05:40:28;4;4;
40371;PMS5003;28564;53.346;-6.554;2023-12-28T05:42:56;1;1;
40371;PMS5003;28564;53.346;-6.554;2023-12-28T05:45:23;1;1;
40371;PMS5003;28564;53.346;-6.554;2023-12-28T05:47:50;5;1;
40371;PMS5003;28564;53.346;-6.554;2023-12-28T05:50:17;3;2;
40371;PMS5003;28564;53.346;-6.554;2023-12-28T05:52:44;2;2;
40371;PMS5003;28564;53.346;-6.554;2023-12-28T05:55:11;2;1;
40371;PMS5003;28564;53.346;-6.554;2023-12-28T05:57:39;4;1;
40371;PMS5003;28564;53.346;-6.554;2023-12-28T06:00:06;0;0;
40371;PMS5003;28564;53.346;-6.554;2023-12-28T06:02:34;3;2;
40371;PMS5003;28564;53.346;-6.554;2023-12-28T06:05:02;2;0;
40371;PMS5003;28564;53.346;-6.554;2023-12-28T06:07:29;2;2;
40371;PMS5003;28564;53.346;-6.554;2023-12-28T06:09:56;1;1;
40371;PMS5003;28564;53.346;-6.554;2023-12-28T06:12:24;2;1;
40371;PMS5003;28564;53.346;-6.554;2023-12-28T06:14:51;2;2;
40371;PMS5003;28564;53.346;-6.554;2023-12-28T06:17:18;2;1;
40371;PMS5003;28564;53.346;-6.554;2023-12-28T06:19:46;2;1;
40371;PMS5003;28564;53.346;-6.554;2023-12-28T06:22:13;2;2;
40371;PMS5003;28564;53.346;-6.554;2023-12-28T06:24:40;4;1;
40371;PMS5003;28564;53.346;-6.554;2023-12-28T06:27:07;1;1;
40371;PMS5003;28564;53.346;-6.554;2023-12-28T06:29:34;2;1;
40371;PMS5003;28564;53.346;-6.554;2023-12-28T06:32:02;1;1;
40371;PMS5003;28564;53.346;-6.554;2023-12-28T06:34:29;2;2;
40371;PMS5003;28564;53.346;-6.554;2023-12-28T06:36:56;0;0;
40371;PMS5003;28564;53.346;-6.554;2023-12-28T06:39:24;2;1;
40371;PMS5003;28564;53.346;-6.554;2023-12-28T06:41:51;1;1;
40371;PMS5003;28564;53.346;-6.554;2023-12-28T06:44:18;2;1;
40371;PMS5003;28564;53.346;-6.554;2023-12-28T06:46:45;4;2;
40371;PMS5003;28564;53.346;-6.554;2023-12-28T06:49:12;1;1;
40371;PMS5003;28564;53.346;-6.554;2023-12-28T06:51:39;2;1;
40371;PMS5003;28564;53.346;-6.554;2023-12-28T06:54:06;3;1;
40371;PMS5003;28564;53.346;-6.554;2023-12-28T06:56:34;3;1;
40371;PMS5003;28564;53.346;-6.554;2023-12-28T06:59:01;1;1;
40371;PMS5003;28564;53.346;-6.554;2023-12-28T07:01:28;3;1;
40371;PMS5003;28564;53.346;-6.554;2023-12-28T07:03:55;1;1;
40371;PMS5003;28564;53.346;-6.554;2023-12-28T07:06:23;5;2;
40371;PMS5003;28564;53.346;-6.554;2023-12-28T07:08:50;5;2;
40371;PMS5003;28564;53.346;-6.554;2023-12-28T07:11:17;3;1;
40371;PMS5003;28564;53.346;-6.554;2023-12-28T07:13:44;1;1;
40371;PMS5003;28564;53.346;-6.554;2023-12-28T07:16:12;1;1;
40371;PMS5003;28564;53.346;-6.554;2023-12-28T07:18:40;0;0;
40371;PMS5003;28564;53.346;-6.554;2023-12-28T07:21:07;0;0;
40371;PMS5003;28564;53.346;-6.554;2023-12-28T07:23:34;2;1;
40371;PMS5003;28564;53.346;-6.554;2023-12-28T07:26:01;2;0;
40371;PMS5003;28564;53.346;-6.554;2023-12-28T07:28:30;3;0;
40371;PMS5003;28564;53.346;-6.554;2023-12-28T07:30:57;1;1;
40371;PMS5003;28564;53.346;-6.554;2023-12-28T07:33:24;2;0;
40371;PMS5003;28564;53.346;-6.554;2023-12-28T07:35:51;3;1;
40371;PMS5003;28564;53.346;-6.554;2023-12-28T07:38:19;1;0;
40371;PMS5003;28564;53.346;-6.554;2023-12-28T07:40:46;0;0;
40371;PMS5003;28564;53.346;-6.554;2023-12-28T07:43:13;0;0;
40371;PMS5003;28564;53.346;-6.554;2023-12-28T07:45:40;3;1;
40371;PMS5003;28564;53.346;-6.554;2023-12-28T07:48:08;0;0;
40371;PMS5003;28564;53.346;-6.554;2023-12-28T07:50:35;3;0;
40371;PMS5003;28564;53.346;-6.554;2023-12-28T07:53:02;2;1;
40371;PMS5003;28564;53.346;-6.554;2023-12-28T07:55:29;0;0;
40371;PMS5003;28564;53.346;-6.554;2023-12-28T07:57:57;0;0;
40371;PMS5003;28564;53.346;-6.554;2023-12-28T08:00:24;1;0;
40371;PMS5003;28564;53.346;-6.554;2023-12-28T08:02:51;0;0;
40371;PMS5003;28564;53.346;-6.554;2023-12-28T08:05:18;4;1;
40371;PMS5003;28564;53.346;-6.554;2023-12-28T08:07:46;1;1;
40371;PMS5003;28564;53.346;-6.554;2023-12-28T08:10:13;1;1;
40371;PMS5003;28564;53.346;-6.554;2023-12-28T08:12:40;3;1;
40371;PMS5003;28564;53.346;-6.554;2023-12-28T08:15:08;4;1;
40371;PMS5003;28564;53.346;-6.554;2023-12-28T08:17:35;0;0;
40371;PMS5003;28564;53.346;-6.554;2023-12-28T08:20:03;0;0;
40371;PMS5003;28564;53.346;-6.554;2023-12-28T08:22:30;0;0;
40371;PMS5003;28564;53.346;-6.554;2023-12-28T08:24:58;2;2;
40371;PMS5003;28564;53.346;-6.554;2023-12-28T08:27:25;0;0;
40371;PMS5003;28564;53.346;-6.554;2023-12-28T08:29:52;1;1;
40371;PMS5003;28564;53.346;-6.554;2023-12-28T08:32:19;1;1;
40371;PMS5003;28564;53.346;-6.554;2023-12-28T08:34:47;3;1;
40371;PMS5003;28564;53.346;-6.554;2023-12-28T08:37:14;2;2;
40371;PMS5003;28564;53.346;-6.554;2023-12-28T08:39:41;1;1;
40371;PMS5003;28564;53.346;-6.554;2023-12-28T08:42:08;1;1;
40371;PMS5003;28564;53.346;-6.554;2023-12-28T08:44:35;2;1;
40371;PMS5003;28564;53.346;-6.554;2023-12-28T08:47:03;1;1;
40371;PMS5003;28564;53.346;-6.554;2023-12-28T08:49:30;1;1;
40371;PMS5003;28564;53.346;-6.554;2023-12-28T08:51:57;4;2;
40371;PMS5003;28564;53.346;-6.554;2023-12-28T08:54:24;2;0;
40371;PMS5003;28564;53.346;-6.554;2023-12-28T08:56:52;2;1;
40371;PMS5003;28564;53.346;-6.554;2023-12-28T08:59:19;3;1;
40371;PMS5003;28564;53.346;-6.554;2023-12-28T09:01:46;2;1;
40371;PMS5003;28564;53.346;-6.554;2023-12-28T09:04:14;3;1;
40371;PMS5003;28564;53.346;-6.554;2023-12-28T09:06:41;0;0;
40371;PMS5003;28564;53.346;-6.554;2023-12-28T09:09:08;4;2;
40371;PMS5003;28564;53.346;-6.554;2023-12-28T09:11:35;2;1;
40371;PMS5003;28564;53.346;-6.554;2023-12-28T09:14:02;1;1;
40371;PMS5003;28564;53.346;-6.554;2023-12-28T09:16:30;1;1;
40371;PMS5003;28564;53.346;-6.554;2023-12-28T09:18:57;2;1;
40371;PMS5003;28564;53.346;-6.554;2023-12-28T09:21:24;3;1;
40371;PMS5003;28564;53.346;-6.554;2023-12-28T09:23:51;4;1;
40371;PMS5003;28564;53.346;-6.554;2023-12-28T09:26:18;2;1;
40371;PMS5003;28564;53.346;-6.554;2023-12-28T09:28:46;1;0;
40371;PMS5003;28564;53.346;-6.554;2023-12-28T09:31:13;1;1;
40371;PMS5003;28564;53.346;-6.554;2023-12-28T09:33:40;7;3;
40371;PMS5003;28564;53.346;-6.554;2023-12-28T09:36:08;2;2;
40371;PMS5003;28564;53.346;-6.554;2023-12-28T09:38:36;4;2;
40371;PMS5003;28564;53.346;-6.554;2023-12-28T09:41:04;2;1;
40371;PMS5003;28564;53.346;-6.554;2023-12-28T09:43:40;1;0;
40371;PMS5003;28564;53.346;-6.554;2023-12-28T09:46:13;2;2;
40371;PMS5003;28564;53.346;-6.554;2023-12-28T09:48:41;4;2;
40371;PMS5003;28564;53.346;-6.554;2023-12-28T09:51:09;0;0;
40371;PMS5003;28564;53.346;-6.554;2023-12-28T09:53:37;1;1;
40371;PMS5003;28564;53.346;-6.554;2023-12-28T09:56:05;0;0;
40371;PMS5003;28564;53.346;-6.554;2023-12-28T09:58:33;2;1;
40371;PMS5003;28564;53.346;-6.554;2023-12-28T10:01:03;1;0;
40371;PMS5003;28564;53.346;-6.554;2023-12-28T10:03:33;0;0;
40371;PMS5003;28564;53.346;-6.554;2023-12-28T10:06:00;1;0;
40371;PMS5003;28564;53.346;-6.554;2023-12-28T10:08:27;1;0;
40371;PMS5003;28564;53.346;-6.554;2023-12-28T10:10:54;0;0;
40371;PMS5003;28564;53.346;-6.554;2023-12-28T10:13:22;0;0;
40371;PMS5003;28564;53.346;-6.554;2023-12-28T10:15:49;0;0;
40371;PMS5003;28564;53.346;-6.554;2023-12-28T10:18:17;0;0;
40371;PMS5003;28564;53.346;-6.554;2023-12-28T10:20:48;0;0;
40371;PMS5003;28564;53.346;-6.554;2023-12-28T10:23:16;0;0;
40371;PMS5003;28564;53.346;-6.554;2023-12-28T10:25:44;0;0;
40371;PMS5003;28564;53.346;-6.554;2023-12-28T10:28:11;0;0;
40371;PMS5003;28564;53.346;-6.554;2023-12-28T10:30:38;1;1;
40371;PMS5003;28564;53.346;-6.554;2023-12-28T10:33:05;0;0;
40371;PMS5003;28564;53.346;-6.554;2023-12-28T10:35:33;1;1;
40371;PMS5003;28564;53.346;-6.554;2023-12-28T10:38:00;0;0;
40371;PMS5003;28564;53.346;-6.554;2023-12-28T10:40:28;3;2;
40371;PMS5003;28564;53.346;-6.554;2023-12-28T10:42:57;0;0;
40371;PMS5003;28564;53.346;-6.554;2023-12-28T10:45:25;0;0;
40371;PMS5003;28564;53.346;-6.554;2023-12-28T10:47:59;2;1;
40371;PMS5003;28564;53.346;-6.554;2023-12-28T10:50:33;0;0;
40371;PMS5003;28564;53.346;-6.554;2023-12-28T10:53:11;1;1;
40371;PMS5003;28564;53.346;-6.554;2023-12-28T10:55:53;0;0;
40371;PMS5003;28564;53.346;-6.554;2023-12-28T10:58:34;0;0;
40371;PMS5003;28564;53.346;-6.554;2023-12-28T11:01:08;0;0;
40371;PMS5003;28564;53.346;-6.554;2023-12-28T11:03:38;0;0;
40371;PMS5003;28564;53.346;-6.554;2023-12-28T11:06:09;0;0;
40371;PMS5003;28564;53.346;-6.554;2023-12-28T11:08:38;0;0;
40371;PMS5003;28564;53.346;-6.554;2023-12-28T11:11:09;2;1;
40371;PMS5003;28564;53.346;-6.554;2023-12-28T11:13:38;0;0;
40371;PMS5003;28564;53.346;-6.554;2023-12-28T11:16:06;0;0;
40371;PMS5003;28564;53.346;-6.554;2023-12-28T11:18:34;0;0;
40371;PMS5003;28564;53.346;-6.554;2023-12-28T11:21:01;0;0;
40371;PMS5003;28564;53.346;-6.554;2023-12-28T11:23:29;2;1;
40371;PMS5003;28564;53.346;-6.554;2023-12-28T11:25:57;3;1;
40371;PMS5003;28564;53.346;-6.554;2023-12-28T11:28:24;1;1;
40371;PMS5003;28564;53.346;-6.554;2023-12-28T11:30:51;1;0;
40371;PMS5003;28564;53.346;-6.554;2023-12-28T11:33:18;4;0;
40371;PMS5003;28564;53.346;-6.554;2023-12-28T11:35:47;2;2;
40371;PMS5003;28564;53.346;-6.554;2023-12-28T11:38:15;0;0;
40371;PMS5003;28564;53.346;-6.554;2023-12-28T11:40:44;2;1;
40371;PMS5003;28564;53.346;-6.554;2023-12-28T11:43:14;3;2;
40371;PMS5003;28564;53.346;-6.554;2023-12-28T11:45:48;2;2;
40371;PMS5003;28564;53.346;-6.554;2023-12-28T11:48:24;2;1;
40371;PMS5003;28564;53.346;-6.554;2023-12-28T11:50:52;1;1;
40371;PMS5003;28564;53.346;-6.554;2023-12-28T11:53:22;2;1;
40371;PMS5003;28564;53.346;-6.554;2023-12-28T11:55:49;1;1;
40371;PMS5003;28564;53.346;-6.554;2023-12-28T11:58:17;2;0;
40371;PMS5003;28564;53.346;-6.554;2023-12-28T12:00:44;4;1;
40371;PMS5003;28564;53.346;-6.554;2023-12-28T12:03:12;4;2;
40371;PMS5003;28564;53.346;-6.554;2023-12-28T12:05:40;1;0;
40371;PMS5003;28564;53.346;-6.554;2023-12-28T12:08:08;4;1;
40371;PMS5003;28564;53.346;-6.554;2023-12-28T12:10:36;1;1;
40371;PMS5003;28564;53.346;-6.554;2023-12-28T12:13:04;1;1;
40371;PMS5003;28564;53.346;-6.554;2023-12-28T12:15:31;3;1;
40371;PMS5003;28564;53.346;-6.554;2023-12-28T12:17:58;1;1;
40371;PMS5003;28564;53.346;-6.554;2023-12-28T12:20:26;6;2;
40371;PMS5003;28564;53.346;-6.554;2023-12-28T12:22:53;1;1;
40371;PMS5003;28564;53.346;-6.554;2023-12-28T12:25:24;2;2;
40371;PMS5003;28564;53.346;-6.554;2023-12-28T12:27:51;1;1;
40371;PMS5003;28564;53.346;-6.554;2023-12-28T12:30:18;3;1;
40371;PMS5003;28564;53.346;-6.554;2023-12-28T12:32:45;2;2;
40371;PMS5003;28564;53.346;-6.554;2023-12-28T12:35:13;1;1;
40371;PMS5003;28564;53.346;-6.554;2023-12-28T12:37:40;3;2;
40371;PMS5003;28564;53.346;-6.554;2023-12-28T12:40:07;2;2;
40371;PMS5003;28564;53.346;-6.554;2023-12-28T12:42:35;5;1;
40371;PMS5003;28564;53.346;-6.554;2023-12-28T12:45:02;2;2;
40371;PMS5003;28564;53.346;-6.554;2023-12-28T12:47:32;1;1;
40371;PMS5003;28564;53.346;-6.554;2023-12-28T12:49:59;3;2;
40371;PMS5003;28564;53.346;-6.554;2023-12-28T12:52:26;3;2;
40371;PMS5003;28564;53.346;-6.554;2023-12-28T12:54:54;4;2;
40371;PMS5003;28564;53.346;-6.554;2023-12-28T12:57:23;3;3;
40371;PMS5003;28564;53.346;-6.554;2023-12-28T12:59:51;5;3;
40371;PMS5003;28564;53.346;-6.554;2023-12-28T13:02:18;3;3;
40371;PMS5003;28564;53.346;-6.554;2023-12-28T13:04:48;3;3;
40371;PMS5003;28564;53.346;-6.554;2023-12-28T13:07:18;4;2;
40371;PMS5003;28564;53.346;-6.554;2023-12-28T13:09:45;2;1;
40371;PMS5003;28564;53.346;-6.554;2023-12-28T13:12:12;3;1;
40371;PMS5003;28564;53.346;-6.554;2023-12-28T13:14:39;1;1;
40371;PMS5003;28564;53.346;-6.554;2023-12-28T13:17:07;2;1;
40371;PMS5003;28564;53.346;-6.554;2023-12-28T13:19:34;0;0;
40371;PMS5003;28564;53.346;-6.554;2023-12-28T13:22:00;5;5;
40371;PMS5003;28564;53.346;-6.554;2023-12-28T13:24:28;7;5;
40371;PMS5003;28564;53.346;-6.554;2023-12-28T13:26:55;5;5;
40371;PMS5003;28564;53.346;-6.554;2023-12-28T13:29:22;7;5;
40371;PMS5003;28564;53.346;-6.554;2023-12-28T13:31:49;3;3;
40371;PMS5003;28564;53.346;-6.554;2023-12-28T13:34:17;4;4;
40371;PMS5003;28564;53.346;-6.554;2023-12-28T13:36:45;25;24;
40371;PMS5003;28564;53.346;-6.554;2023-12-28T13:39:12;20;18;
40371;PMS5003;28564;53.346;-6.554;2023-12-28T13:41:39;15;15;
40371;PMS5003;28564;53.346;-6.554;2023-12-28T13:44:06;16;16;
40371;PMS5003;28564;53.346;-6.554;2023-12-28T13:46:33;7;6;
40371;PMS5003;28564;53.346;-6.554;2023-12-28T13:49:01;8;6;
40371;PMS5003;28564;53.346;-6.554;2023-12-28T13:51:28;1;1;
40371;PMS5003;28564;53.346;-6.554;2023-12-28T13:53:55;0;0;
40371;PMS5003;28564;53.346;-6.554;2023-12-28T13:56:22;1;1;
40371;PMS5003;28564;53.346;-6.554;2023-12-28T13:58:49;1;1;
40371;PMS5003;28564;53.346;-6.554;2023-12-28T14:01:16;3;0;
40371;PMS5003;28564;53.346;-6.554;2023-12-28T14:03:44;2;1;
40371;PMS5003;28564;53.346;-6.554;2023-12-28T14:06:11;4;1;
40371;PMS5003;28564;53.346;-6.554;2023-12-28T14:08:39;2;2;
40371;PMS5003;28564;53.346;-6.554;2023-12-28T14:11:06;4;1;
40371;PMS5003;28564;53.346;-6.554;2023-12-28T14:13:33;2;1;
40371;PMS5003;28564;53.346;-6.554;2023-12-28T14:16:00;5;2;
40371;PMS5003;28564;53.346;-6.554;2023-12-28T14:18:27;2;1;
40371;PMS5003;28564;53.346;-6.554;2023-12-28T14:20:54;3;1;
40371;PMS5003;28564;53.346;-6.554;2023-12-28T14:23:22;4;2;
40371;PMS5003;28564;53.346;-6.554;2023-12-28T14:25:50;4;1;
40371;PMS5003;28564;53.346;-6.554;2023-12-28T14:28:18;1;1;
40371;PMS5003;28564;53.346;-6.554;2023-12-28T14:30:46;1;1;
40371;PMS5003;28564;53.346;-6.554;2023-12-28T14:33:13;1;1;
40371;PMS5003;28564;53.346;-6.554;2023-12-28T14:35:41;1;0;
40371;PMS5003;28564;53.346;-6.554;2023-12-28T14:38:09;0;0;
40371;PMS5003;28564;53.346;-6.554;2023-12-28T14:40:36;0;0;
40371;PMS5003;28564;53.346;-6.554;2023-12-28T14:43:03;0;0;
40371;PMS5003;28564;53.346;-6.554;2023-12-28T14:45:31;0;0;
40371;PMS5003;28564;53.346;-6.554;2023-12-28T14:47:58;0;0;
40371;PMS5003;28564;53.346;-6.554;2023-12-28T14:50:26;1;1;
40371;PMS5003;28564;53.346;-6.554;2023-12-28T14:52:53;1;1;
40371;PMS5003;28564;53.346;-6.554;2023-12-28T14:55:20;2;0;
40371;PMS5003;28564;53.346;-6.554;2023-12-28T14:57:47;1;1;
40371;PMS5003;28564;53.346;-6.554;2023-12-28T15:00:14;1;1;
40371;PMS5003;28564;53.346;-6.554;2023-12-28T15:02:42;2;0;
40371;PMS5003;28564;53.346;-6.554;2023-12-28T15:05:09;0;0;
40371;PMS5003;28564;53.346;-6.554;2023-12-28T15:07:37;0;0;
40371;PMS5003;28564;53.346;-6.554;2023-12-28T15:10:04;0;0;
40371;PMS5003;28564;53.346;-6.554;2023-12-28T15:12:33;0;0;
40371;PMS5003;28564;53.346;-6.554;2023-12-28T15:15:01;0;0;
40371;PMS5003;28564;53.346;-6.554;2023-12-28T15:17:29;0;0;
40371;PMS5003;28564;53.346;-6.554;2023-12-28T15:19:57;0;0;
40371;PMS5003;28564;53.346;-6.554;2023-12-28T15:22:25;0;0;
40371;PMS5003;28564;53.346;-6.554;2023-12-28T15:24:53;0;0;
40371;PMS5003;28564;53.346;-6.554;2023-12-28T15:27:20;0;0;
40371;PMS5003;28564;53.346;-6.554;2023-12-28T15:29:47;0;0;
40371;PMS5003;28564;53.346;-6.554;2023-12-28T15:32:15;1;1;
40371;PMS5003;28564;53.346;-6.554;2023-12-28T15:34:42;0;0;
40371;PMS5003;28564;53.346;-6.554;2023-12-28T15:37:09;1;0;
40371;PMS5003;28564;53.346;-6.554;2023-12-28T15:39:36;0;0;
40371;PMS5003;28564;53.346;-6.554;2023-12-28T15:42:04;1;1;
40371;PMS5003;28564;53.346;-6.554;2023-12-28T15:44:31;2;2;
40371;PMS5003;28564;53.346;-6.554;2023-12-28T15:46:58;1;1;
40371;PMS5003;28564;53.346;-6.554;2023-12-28T15:49:25;2;1;
40371;PMS5003;28564;53.346;-6.554;2023-12-28T15:51:52;3;2;
40371;PMS5003;28564;53.346;-6.554;2023-12-28T15:54:20;2;1;
40371;PMS5003;28564;53.346;-6.554;2023-12-28T15:56:47;1;1;
40371;PMS5003;28564;53.346;-6.554;2023-12-28T15:59:14;2;2;
40371;PMS5003;28564;53.346;-6.554;2023-12-28T16:01:41;2;0;
40371;PMS5003;28564;53.346;-6.554;2023-12-28T16:04:09;3;1;
40371;PMS5003;28564;53.346;-6.554;2023-12-28T16:06:36;1;1;
40371;PMS5003;28564;53.346;-6.554;2023-12-28T16:09:03;1;1;
40371;PMS5003;28564;53.346;-6.554;2023-12-28T16:11:30;1;1;
40371;PMS5003;28564;53.346;-6.554;2023-12-28T16:13:58;2;1;
40371;PMS5003;28564;53.346;-6.554;2023-12-28T16:16:26;0;0;
40371;PMS5003;28564;53.346;-6.554;2023-12-28T16:18:54;2;2;
40371;PMS5003;28564;53.346;-6.554;2023-12-28T16:21:22;0;0;
40371;PMS5003;28564;53.346;-6.554;2023-12-28T16:23:50;0;0;
40371;PMS5003;28564;53.346;-6.554;2023-12-28T16:26:18;1;1;
40371;PMS5003;28564;53.346;-6.554;2023-12-28T16:28:45;1;0;
40371;PMS5003;28564;53.346;-6.554;2023-12-28T16:31:12;0;0;
40371;PMS5003;28564;53.346;-6.554;2023-12-28T16:33:40;4;0;
40371;PMS5003;28564;53.346;-6.554;2023-12-28T16:36:07;3;2;